TimeMST,TemperatureF,Dew PointF,Humidity,Sea Level PressureIn,VisibilityMPH,Wind Direction,Wind SpeedMPH,Gust SpeedMPH,PrecipitationIn,Events,Conditions,WindDirDegrees,DateUTC
12:00 AM,17.2,15.6,93,29.80,-9999.0,Calm,Calm,-,N/A,,Unknown,0,2013-01-09 07:00:00
1:00 AM,16.9,15.3,93,29.77,-9999.0,Calm,Calm,-,N/A,,Unknown,0,2013-01-09 08:00:00
2:00 AM,16.7,15.1,93,29.74,-9999.0,Calm,Calm,-,N/A,,Unknown,0,2013-01-09 09:00:00
3:00 AM,16.5,14.9,93,29.72,-9999.0,Calm,Calm,-,N/A,,Unknown,0,2013-01-09 10:00:00
4:00 AM,16.7,14.9,93,29.69,-9999.0,Calm,Calm,-,N/A,,Unknown,0,2013-01-09 11:00:00
5:00 AM,17,15,86,29.66,,Calm,Calm,,,,,,2013-01-09 12:00:00
5:00 AM,16.5,14.7,93,29.66,-9999.0,Calm,Calm,-,N/A,,Unknown,0,2013-01-09 12:00:00
6:00 AM,16.5,14.7,93,29.62,-9999.0,Calm,Calm,-,N/A,,Unknown,0,2013-01-09 13:00:00
7:00 AM,17.8,16.2,93,29.60,-9999.0,West,10.4,-,N/A,,Unknown,270,2013-01-09 14:00:00
8:00 AM,19.4,18.0,94,29.60,-9999.0,West,12.7,-,N/A,,Unknown,280,2013-01-09 15:00:00
9:00 AM,20.8,19.6,95,29.60,-9999.0,West,15.0,-,N/A,,Unknown,270,2013-01-09 16:00:00
10:00 AM,21.9,20.7,95,29.60,-9999.0,West,12.7,-,N/A,,Unknown,260,2013-01-09 17:00:00
11:00 AM,23,22,95,29.60,,West,12.7,,,,,260,2013-01-09 18:00:00
11:00 AM,23.2,22.1,96,29.60,-9999.0,West,12.7,-,N/A,,Unknown,260,2013-01-09 18:00:00
12:00 PM,23.4,22.1,95,29.59,-9999.0,WSW,9.2,-,N/A,,Unknown,240,2013-01-09 19:00:00
1:00 PM,23.5,22.3,95,29.57,-9999.0,SW,6.9,-,N/A,,Unknown,230,2013-01-09 20:00:00
2:00 PM,23.5,22.3,95,29.57,-9999.0,West,11.5,-,N/A,,Unknown,260,2013-01-09 21:00:00
3:00 PM,25.0,23.7,95,29.56,-9999.0,West,9.2,-,N/A,,Unknown,260,2013-01-09 22:00:00
4:00 PM,24.8,23.5,95,29.57,-9999.0,West,6.9,-,N/A,,Unknown,260,2013-01-09 23:00:00
5:00 PM,25,23,91,29.61,,WSW,10.4,,,,,240,2013-01-10 00:00:00
5:00 PM,24.6,23.4,95,29.61,-9999.0,WSW,10.4,-,N/A,,Unknown,240,2013-01-10 00:00:00
7:00 PM,23.4,22.3,96,29.65,-9999.0,WSW,8.1,-,N/A,,Unknown,250,2013-01-10 02:00:00
8:00 PM,22.8,21.7,96,29.66,-9999.0,WSW,8.1,-,N/A,,Unknown,250,2013-01-10 03:00:00
9:00 PM,22.1,21.0,96,29.68,-9999.0,WSW,8.1,-,N/A,,Unknown,240,2013-01-10 04:00:00
10:00 PM,21.7,20.5,95,29.71,-9999.0,WSW,5.8,-,N/A,,Unknown,240,2013-01-10 05:00:00
11:00 PM,22,20,90,29.73,,West,6.9,,,,,260,2013-01-10 06:00:00